createdAt,value
2022-08-19T00:04:00.969Z,68.58
2022-08-19T00:09:06.394Z,68.51
2022-08-19T00:14:12.394Z,68.15
2022-08-19T00:19:16.009Z,68.72
2022-08-19T00:24:18.794Z,69.08
2022-08-19T00:29:23.869Z,68.96
2022-08-19T00:34:28.861Z,68.73
2022-08-19T00:39:31.879Z,69.44
2022-08-19T00:44:36.488Z,69.72
2022-08-19T00:49:42.203Z,68.99
2022-08-19T00:54:47.022Z,69.98
2022-08-19T01:00:02.704Z,70.75
2022-08-19T01:05:11.253Z,70.90
2022-08-19T01:10:16.807Z,70.91
2022-08-19T01:15:25.450Z,70.98
2022-08-19T01:20:28.309Z,70.99
2022-08-19T01:25:37.969Z,71.09
2022-08-19T01:30:44.376Z,71.25
2022-08-19T01:35:54.020Z,71.18
2022-08-19T01:40:58.318Z,71.55
2022-08-19T01:46:01.630Z,72.00
2022-08-19T01:51:04.809Z,72.44
2022-08-19T01:56:09.239Z,73.27
2022-08-19T02:01:12.364Z,73.02
2022-08-19T02:06:15.510Z,72.82
2022-08-19T02:11:27.450Z,73.61
2022-08-19T02:16:31.279Z,72.67
2022-08-19T02:21:34.653Z,74.50
2022-08-19T02:26:38.838Z,74.99
2022-08-19T02:31:42.494Z,75.43
2022-08-19T02:36:45.311Z,75.65
2022-08-19T02:41:55.801Z,76.30
2022-08-19T02:46:58.617Z,76.90
2022-08-19T02:52:01.426Z,77.74
2022-08-19T02:57:07.027Z,78.87
2022-08-19T03:02:09.814Z,78.77
2022-08-19T03:07:15.829Z,78.89
2022-08-19T03:12:19.982Z,78.74
2022-08-19T03:17:22.868Z,79.18
2022-08-19T03:22:26.357Z,79.08
2022-08-19T03:27:34.434Z,78.80
2022-08-19T03:32:37.527Z,79.01
2022-08-19T03:37:48.283Z,79.79
2022-08-19T03:42:52.445Z,80.47
2022-08-19T03:47:55.506Z,80.67
2022-08-19T03:52:58.272Z,80.72
2022-08-19T03:58:02.428Z,80.85
2022-08-19T04:03:05.273Z,80.33
2022-08-19T04:08:13.271Z,80.81
2022-08-19T04:13:19.125Z,81.34
2022-08-19T04:18:21.874Z,81.32
2022-08-19T04:23:25.436Z,81.81
2022-08-19T04:28:29.984Z,82.07
2022-08-19T04:33:34.400Z,82.93
2022-08-19T04:38:37.221Z,82.90
2022-08-19T04:43:41.329Z,83.02
2022-08-19T04:48:49.385Z,82.50
2022-08-19T04:53:53.327Z,82.47
2022-08-19T04:58:58.853Z,82.68
2022-08-19T05:04:02.552Z,82.54
2022-08-19T05:09:07.365Z,82.65
2022-08-19T05:14:13.374Z,82.26
2022-08-19T05:19:42.087Z,82.52
2022-08-19T05:25:09.207Z,82.71
2022-08-19T05:30:10.253Z,82.84
2022-08-19T05:35:13.311Z,82.63
2022-08-19T05:40:16.185Z,83.17
2022-08-19T05:45:22.500Z,83.39
2022-08-19T05:50:26.298Z,83.70
2022-08-19T05:55:29.077Z,83.40
2022-08-19T06:00:33.272Z,83.65
2022-08-19T06:05:42.335Z,83.05
2022-08-19T06:10:52.437Z,83.06
2022-08-19T06:15:56.593Z,83.20
2022-08-19T06:20:59.398Z,83.03
2022-08-19T06:26:02.176Z,82.80
2022-08-19T06:31:09.852Z,82.27
2022-08-19T06:36:19.789Z,82.47
2022-08-19T06:41:22.551Z,82.23
2022-08-19T06:46:27.361Z,82.23
2022-08-19T06:56:35.726Z,81.61
2022-08-19T07:01:42.799Z,81.20
2022-08-19T07:06:46.080Z,80.93
2022-08-19T07:11:58.442Z,80.67
2022-08-19T07:17:04.142Z,80.72
2022-08-19T07:22:08.865Z,80.50
2022-08-19T07:27:16.993Z,80.45
2022-08-19T07:32:21.129Z,81.07
2022-08-19T07:37:23.923Z,81.49
2022-08-19T07:42:27.649Z,82.53
2022-08-19T07:47:49.716Z,82.95
2022-08-19T07:52:53.844Z,83.34
2022-08-19T07:57:56.726Z,83.51
2022-08-19T08:03:00.872Z,83.57
2022-08-19T08:08:21.129Z,83.55
2022-08-19T08:13:30.581Z,82.61
2022-08-19T08:18:42.309Z,82.28
2022-08-19T08:23:45.149Z,82.14
2022-08-19T08:28:49.515Z,81.07
2022-08-19T08:33:53.724Z,81.16
2022-08-19T08:44:01.002Z,80.40
2022-08-19T08:49:26.127Z,80.22
2022-08-19T08:54:34.934Z,80.22
2022-08-19T08:59:42.322Z,79.97
2022-08-19T09:04:46.829Z,79.50
2022-08-19T09:09:56.183Z,80.30
2022-08-19T09:15:02.329Z,79.80
2022-08-19T09:20:15.986Z,79.24
2022-08-19T09:25:24.762Z,79.53
2022-08-19T09:30:32.455Z,79.38
2022-08-19T09:35:50.207Z,79.07
2022-08-19T09:40:56.578Z,79.12
2022-08-19T09:46:02.129Z,77.75
2022-08-19T09:51:08.948Z,77.05
2022-08-19T09:56:15.721Z,77.53
2022-08-19T10:01:25.820Z,76.40
2022-08-19T10:06:42.009Z,76.13
2022-08-19T10:11:54.699Z,76.40
2022-08-19T10:16:59.359Z,76.81
2022-08-19T10:22:05.293Z,75.60
2022-08-19T10:27:14.180Z,75.63
2022-08-19T10:32:18.908Z,74.53
2022-08-19T10:37:49.794Z,74.30
2022-08-19T10:43:00.476Z,75.61
2022-08-19T10:48:03.244Z,74.73
2022-08-19T10:53:10.415Z,74.84
2022-08-19T10:58:14.947Z,73.85
2022-08-19T11:03:17.738Z,73.28
2022-08-19T11:08:23.715Z,73.03
2022-08-19T11:13:27.290Z,71.25
2022-08-19T11:18:30.409Z,70.68
2022-08-19T11:23:34.653Z,69.74
2022-08-19T11:28:38.317Z,68.70
2022-08-19T11:33:41.313Z,69.82
2022-08-19T11:38:46.059Z,69.50
2022-08-19T11:43:48.931Z,70.37
2022-08-19T11:48:51.779Z,70.13
2022-08-19T11:53:57.417Z,67.74
2022-08-19T11:59:00.569Z,69.00
2022-08-19T12:04:05.316Z,67.08
2022-08-19T12:09:11.797Z,66.33
2022-08-19T12:14:15.283Z,65.37
2022-08-19T12:19:21.966Z,64.95
2022-08-19T12:24:26.863Z,65.08
2022-08-19T12:29:30.473Z,65.93
2022-08-19T12:34:34.223Z,65.09
2022-08-19T12:39:40.531Z,64.42
2022-08-19T12:44:45.572Z,64.27
2022-08-19T12:49:55.158Z,62.58
2022-08-19T12:54:59.997Z,62.25
2022-08-19T13:00:05.519Z,64.20
2022-08-19T13:05:10.928Z,63.95
2022-08-19T13:10:17.953Z,65.90
2022-08-19T13:15:24.113Z,64.64
2022-08-19T13:20:27.532Z,65.17
2022-08-19T13:25:32.172Z,64.74
2022-08-19T13:30:52.323Z,62.01
2022-08-19T13:36:01.453Z,63.51
2022-08-19T13:41:13.261Z,62.98
2022-08-19T13:46:17.845Z,62.06
2022-08-19T13:51:20.843Z,60.65
2022-08-19T13:56:26.497Z,62.64
2022-08-19T14:01:31.189Z,62.02
2022-08-19T14:06:34.118Z,62.43
2022-08-19T14:11:39.085Z,63.77
2022-08-19T14:16:41.895Z,63.57
2022-08-19T14:21:44.825Z,64.79
2022-08-19T14:26:49.003Z,65.79
2022-08-19T14:31:51.793Z,66.04
2022-08-19T14:36:54.737Z,66.57
2022-08-19T14:42:00.092Z,67.08
2022-08-19T14:47:03.561Z,68.24
2022-08-19T14:52:07.626Z,68.47
2022-08-19T14:57:13.608Z,68.81
2022-08-19T15:02:33.765Z,68.86
2022-08-19T15:07:38.151Z,68.78
2022-08-19T15:12:43.444Z,69.84
2022-08-19T15:17:47.408Z,71.61
2022-08-19T15:22:50.374Z,71.55
2022-08-19T15:27:54.886Z,71.95
2022-08-19T15:32:59.781Z,72.05
2022-08-19T15:38:02.668Z,70.74
2022-08-19T15:43:06.977Z,71.01
2022-08-19T15:48:09.801Z,70.42
2022-08-19T15:53:12.822Z,69.33
2022-08-19T15:58:34.467Z,69.50
2022-08-19T16:03:54.758Z,69.39
2022-08-19T16:08:59.430Z,68.84
2022-08-19T16:14:04.030Z,69.42
2022-08-19T16:19:10.611Z,68.32
2022-08-19T16:24:17.654Z,66.12
2022-08-19T16:29:34.675Z,66.16
2022-08-19T16:34:43.069Z,64.26
2022-08-19T16:39:45.962Z,63.16
2022-08-19T16:44:50.121Z,63.42
2022-08-19T16:49:55.455Z,64.06
2022-08-19T16:54:58.374Z,63.30
2022-08-19T17:00:08.253Z,62.09
2022-08-19T17:05:11.343Z,63.52
2022-08-19T17:10:14.173Z,64.09
2022-08-19T17:15:18.392Z,64.33
2022-08-19T17:20:21.262Z,64.29
2022-08-19T17:25:24.271Z,64.98
2022-08-19T17:30:28.697Z,65.11
2022-08-19T17:35:32.551Z,65.00
2022-08-19T17:40:35.657Z,65.27
2022-08-19T17:45:42.156Z,65.64
2022-08-19T17:50:45.122Z,65.80
2022-08-19T17:55:50.689Z,66.09
2022-08-19T18:00:55.466Z,66.78
2022-08-19T18:05:58.581Z,67.31
2022-08-19T18:11:01.673Z,68.74
2022-08-19T18:16:08.921Z,69.48
2022-08-19T18:21:12.273Z,70.38
2022-08-19T18:26:15.080Z,70.61
2022-08-19T18:31:19.386Z,71.67
2022-08-19T18:36:50.040Z,71.66
2022-08-19T18:42:02.961Z,72.02
2022-08-19T18:47:24.573Z,72.22
2022-08-19T18:52:27.329Z,72.88
2022-08-19T18:57:30.285Z,73.49
2022-08-19T19:02:38.937Z,74.12
2022-08-19T19:07:42.841Z,73.89
2022-08-19T19:12:45.853Z,72.52
2022-08-19T19:17:50.041Z,72.89
2022-08-19T19:22:53.691Z,73.37
2022-08-19T19:28:00.970Z,74.01
2022-08-19T19:33:05.435Z,74.27
2022-08-19T19:38:08.251Z,75.10
2022-08-19T19:43:11.041Z,75.08
2022-08-19T19:48:16.262Z,74.49
2022-08-19T19:53:19.073Z,73.25
2022-08-19T19:58:28.590Z,73.58
2022-08-19T20:03:33.657Z,73.81
2022-08-19T20:08:54.463Z,73.57
2022-08-19T20:13:57.290Z,74.54
2022-08-19T20:19:02.596Z,74.36
2022-08-19T20:24:09.324Z,74.27
2022-08-19T20:29:38.514Z,75.24
2022-08-19T20:34:37.211Z,75.69
2022-08-19T20:39:40.144Z,76.31
2022-08-19T20:44:42.992Z,77.00
2022-08-19T20:49:47.290Z,76.26
2022-08-19T20:54:50.294Z,76.77
2022-08-19T20:59:53.100Z,76.53
2022-08-19T21:04:59.051Z,76.51
2022-08-19T21:10:06.800Z,76.45
2022-08-19T21:15:10.350Z,76.15
2022-08-19T21:20:14.590Z,76.22
2022-08-19T21:25:18.063Z,75.66
2022-08-19T21:30:20.838Z,75.46
2022-08-19T21:35:25.055Z,75.27
2022-08-19T21:40:28.445Z,75.32
2022-08-19T21:45:31.257Z,75.89
2022-08-19T21:50:35.429Z,76.69
2022-08-19T21:55:38.307Z,77.02
2022-08-19T22:00:41.133Z,77.29
2022-08-19T22:05:45.985Z,77.65
2022-08-19T22:10:49.666Z,77.71
2022-08-19T22:15:52.595Z,77.76
2022-08-19T22:20:56.757Z,78.34
2022-08-19T22:25:59.614Z,78.46
2022-08-19T22:31:03.427Z,78.95
2022-08-19T22:36:08.876Z,78.89
2022-08-19T22:41:12.600Z,78.95
2022-08-19T22:46:17.597Z,79.23
2022-08-19T22:51:39.466Z,79.58
2022-08-19T22:56:43.359Z,79.30
2022-08-19T23:01:47.090Z,79.92
2022-08-19T23:06:52.808Z,80.24
2022-08-19T23:11:55.869Z,80.38
2022-08-19T23:16:59.320Z,80.61
2022-08-19T23:22:05.207Z,80.76
2022-08-19T23:27:25.335Z,80.30
2022-08-19T23:32:28.154Z,79.82
2022-08-19T23:37:32.322Z,79.83
2022-08-19T23:42:35.294Z,79.62
2022-08-19T23:47:40.641Z,79.75
2022-08-19T23:52:47.806Z,80.83
2022-08-19T23:57:50.928Z,81.60
